Time;durP1;ratioP1;P1;durP2;ratioP2;P2;SDS_P1;SDS_P2;PMS_P1;PMS_P2;Temp;Humidity;BMP_temperature;BMP_pressure;BME280_temperature;BME280_humidity;BME280_pressure;Samples;Min_cycle;Max_cycle;Signal;HPM_P1;HPM_P2
2021/03/07 00:00:11;;;;;;;2.47;2.27;;;23.20;25.90;;;;;;5070526;28;20219;-52
2021/03/07 00:02:37;;;;;;;4.23;2.37;;;23.20;26.00;;;;;;5068992;28;20212;-49
2021/03/07 00:05:03;;;;;;;2.20;1.93;;;23.20;26.00;;;;;;5071574;28;20563;-52
2021/03/07 00:07:29;;;;;;;2.63;1.83;;;23.10;26.00;;;;;;5069656;28;20652;-54
2021/03/07 00:09:55;;;;;;;2.03;1.80;;;23.20;26.20;;;;;;5071191;28;20213;-53
2021/03/07 00:12:21;;;;;;;2.70;1.93;;;23.20;26.20;;;;;;5070481;28;20243;-52
2021/03/07 00:14:47;;;;;;;2.13;1.80;;;23.20;26.30;;;;;;5070345;28;20275;-51
2021/03/07 00:17:13;;;;;;;3.33;2.07;;;23.10;26.20;;;;;;5071682;28;20216;-53
2021/03/07 00:19:39;;;;;;;1.83;1.60;;;23.20;26.30;;;;;;5070059;28;20223;-52
2021/03/07 00:22:05;;;;;;;1.90;1.70;;;23.20;26.30;;;;;;5069869;28;20560;-53
2021/03/07 00:24:30;;;;;;;1.97;1.73;;;23.20;26.50;;;;;;5070537;28;20711;-50
2021/03/07 00:26:56;;;;;;;2.20;2.00;;;23.20;26.20;;;;;;5070628;28;20208;-53
2021/03/07 00:29:22;;;;;;;1.80;1.70;;;23.20;26.20;;;;;;5069891;28;20241;-52
2021/03/07 00:31:48;;;;;;;2.10;1.90;;;23.20;26.20;;;;;;5069963;28;20215;-50
2021/03/07 00:34:14;;;;;;;4.80;1.90;;;23.20;26.20;;;;;;5068899;28;20233;-48
2021/03/07 00:36:40;;;;;;;4.68;2.30;;;23.20;25.80;;;;;;5071173;28;20209;-53
2021/03/07 00:39:06;;;;;;;5.33;2.20;;;23.10;25.40;;;;;;5069965;28;20228;-51
2021/03/07 00:41:32;;;;;;;3.53;2.10;;;23.10;25.50;;;;;;5071225;28;20626;-53
2021/03/07 00:43:58;;;;;;;4.90;2.13;;;23.20;25.70;;;;;;5068882;28;20773;-49
2021/03/07 00:46:24;;;;;;;2.60;2.00;;;23.20;25.70;;;;;;5069490;28;20205;-51
2021/03/07 00:48:49;;;;;;;2.67;2.00;;;23.20;25.90;;;;;;5069706;28;20278;-51
2021/03/07 00:51:15;;;;;;;2.67;2.20;;;23.10;25.90;;;;;;5070597;28;20208;-51
2021/03/07 00:53:41;;;;;;;2.40;1.77;;;23.10;26.00;;;;;;5071871;28;20243;-51
2021/03/07 00:56:07;;;;;;;2.30;1.60;;;23.20;26.10;;;;;;5073902;28;20602;-51
2021/03/07 00:58:33;;;;;;;3.37;2.00;;;23.10;26.10;;;;;;5072334;28;20668;-52
2021/03/07 01:00:59;;;;;;;2.10;1.90;;;23.10;26.10;;;;;;5072472;28;20228;-52
2021/03/07 01:03:25;;;;;;;5.37;2.37;;;23.10;26.10;;;;;;5060596;28;20227;-52
2021/03/07 01:05:51;;;;;;;3.63;2.17;;;23.10;26.10;;;;;;5074061;28;20200;-50
2021/03/07 01:08:17;;;;;;;2.73;2.30;;;23.10;26.10;;;;;;5073330;28;20243;-53
2021/03/07 01:10:43;;;;;;;1.93;1.80;;;23.10;26.10;;;;;;5074285;28;20200;-54
2021/03/07 01:13:09;;;;;;;2.20;2.00;;;23.10;26.00;;;;;;5072664;28;20265;-52
2021/03/07 01:15:34;;;;;;;2.63;2.07;;;23.10;25.90;;;;;;5074402;28;20270;-54
2021/03/07 01:18:00;;;;;;;3.60;2.20;;;23.10;25.90;;;;;;5070747;28;20673;-53
2021/03/07 01:20:26;;;;;;;2.57;1.90;;;23.10;25.90;;;;;;5074486;28;20200;-55
2021/03/07 01:22:52;;;;;;;3.93;2.23;;;23.10;25.90;;;;;;5073077;28;20691;-53
2021/03/07 01:25:18;;;;;;;3.60;1.80;;;23.10;25.90;;;;;;5073790;28;20290;-51
2021/03/07 01:27:44;;;;;;;2.33;1.83;;;23.10;25.80;;;;;;5073094;28;20200;-51
2021/03/07 01:30:10;;;;;;;4.35;2.30;;;23.10;25.80;;;;;;5073389;28;20216;-48
2021/03/07 01:32:36;;;;;;;3.23;2.00;;;23.10;25.80;;;;;;5072622;28;20200;-54
2021/03/07 01:35:02;;;;;;;3.47;1.83;;;23.10;25.80;;;;;;5072580;28;20301;-54
2021/03/07 01:37:28;;;;;;;2.47;1.80;;;23.10;25.80;;;;;;5072677;28;20645;-53
2021/03/07 01:39:54;;;;;;;2.30;1.77;;;23.10;25.90;;;;;;5074113;28;20208;-54
2021/03/07 01:42:20;;;;;;;3.50;1.80;;;23.10;25.90;;;;;;5072111;28;20289;-54
2021/03/07 01:44:46;;;;;;;3.83;2.37;;;23.10;26.00;;;;;;5072290;28;20255;-52
2021/03/07 01:47:11;;;;;;;1.90;1.73;;;23.10;26.10;;;;;;5072652;28;20664;-53
2021/03/07 01:49:37;;;;;;;4.07;1.97;;;23.10;26.20;;;;;;5071659;28;20229;-53
2021/03/07 01:52:03;;;;;;;2.77;1.80;;;23.10;26.20;;;;;;5072465;28;20194;-51
2021/03/07 01:54:29;;;;;;;1.90;1.77;;;23.10;26.20;;;;;;5071375;28;20228;-53
2021/03/07 01:56:55;;;;;;;3.53;1.70;;;23.10;26.30;;;;;;5073457;28;20211;-52
2021/03/07 01:59:21;;;;;;;2.17;1.90;;;23.10;26.30;;;;;;5072673;28;20209;-51
2021/03/07 02:01:47;;;;;;;2.30;2.03;;;23.10;26.20;;;;;;5072366;28;20201;-54
2021/03/07 02:04:13;;;;;;;2.57;1.73;;;23.10;26.20;;;;;;5071105;28;20228;-54
2021/03/07 02:06:39;;;;;;;2.83;2.03;;;23.10;26.10;;;;;;5071067;28;20200;-50
2021/03/07 02:09:05;;;;;;;2.03;1.80;;;23.10;26.10;;;;;;5073310;28;20595;-53
2021/03/07 02:11:31;;;;;;;3.17;1.70;;;23.10;26.00;;;;;;5076373;23;20712;-49
2021/03/07 02:13:57;;;;;;;3.33;1.80;;;23.10;26.00;;;;;;5049849;28;20233;-48
2021/03/07 02:16:23;;;;;;;4.40;1.80;;;23.10;26.00;;;;;;5052629;28;20208;-50
2021/03/07 02:18:48;;;;;;;2.37;2.10;;;23.10;25.90;;;;;;5051695;28;20198;-51
2021/03/07 02:21:14;;;;;;;3.63;2.27;;;23.10;25.90;;;;;;5052467;28;20202;-48
2021/03/07 02:23:40;;;;;;;2.27;1.90;;;23.10;25.90;;;;;;5048582;28;20252;-50
2021/03/07 02:26:06;;;;;;;5.57;2.40;;;23.10;25.90;;;;;;5052618;28;20589;-46
2021/03/07 02:28:32;;;;;;;2.88;2.10;;;23.10;25.90;;;;;;5051925;28;20532;-49
2021/03/07 02:30:58;;;;;;;2.43;1.83;;;23.10;25.90;;;;;;5052093;28;20200;-51
2021/03/07 02:33:24;;;;;;;3.47;1.90;;;23.10;25.90;;;;;;5050873;28;20231;-50
2021/03/07 02:35:50;;;;;;;3.43;2.00;;;23.10;25.90;;;;;;5051141;28;20220;-45
2021/03/07 02:38:16;;;;;;;4.63;1.90;;;23.10;26.00;;;;;;5051434;28;20209;-49
2021/03/07 02:40:42;;;;;;;2.83;2.00;;;23.10;25.90;;;;;;5052501;28;20205;-49
2021/03/07 02:43:08;;;;;;;2.47;1.97;;;23.10;26.50;;;;;;5050198;28;20229;-49
2021/03/07 02:45:33;;;;;;;2.50;2.20;;;23.10;26.10;;;;;;5048567;28;20642;-50
2021/03/07 02:47:59;;;;;;;2.10;1.90;;;23.10;26.10;;;;;;5050179;28;20221;-48
2021/03/07 02:50:25;;;;;;;2.30;1.80;;;23.10;26.10;;;;;;5051228;28;20205;-50
2021/03/07 02:52:51;;;;;;;1.87;1.67;;;23.10;26.10;;;;;;5051536;28;20217;-47
2021/03/07 02:55:17;;;;;;;3.10;1.67;;;23.10;26.20;;;;;;5050285;28;20278;-50
2021/03/07 02:57:43;;;;;;;2.23;2.03;;;23.10;26.20;;;;;;5052368;28;20204;-50
2021/03/07 03:00:09;;;;;;;2.13;1.93;;;23.10;26.10;;;;;;5050723;28;20213;-50
2021/03/07 03:02:35;;;;;;;3.33;1.90;;;23.10;26.10;;;;;;5051629;28;20626;-49
2021/03/07 03:05:01;;;;;;;2.70;1.80;;;23.10;26.20;;;;;;5050625;28;20681;-47
2021/03/07 03:07:27;;;;;;;4.10;2.07;;;23.00;26.20;;;;;;5051868;28;20650;-47
2021/03/07 03:09:53;;;;;;;2.83;1.90;;;23.10;26.20;;;;;;5048743;28;20237;-49
2021/03/07 03:12:19;;;;;;;1.97;1.80;;;23.10;26.20;;;;;;5050980;28;20213;-46
2021/03/07 03:14:44;;;;;;;3.33;2.00;;;23.10;26.20;;;;;;5049742;28;20254;-46
2021/03/07 03:17:10;;;;;;;2.00;1.80;;;23.10;26.10;;;;;;5049813;28;20213;-47
2021/03/07 03:19:36;;;;;;;2.23;2.00;;;23.10;26.20;;;;;;5045654;28;20622;-48
2021/03/07 03:22:02;;;;;;;2.13;1.93;;;23.10;26.20;;;;;;5050686;28;20684;-50
2021/03/07 03:24:28;;;;;;;3.07;1.80;;;23.10;26.20;;;;;;5050620;28;20224;-47
2021/03/07 03:27:01;;;;;;;2.20;1.63;;;23.00;26.10;;;;;;5050737;28;20217;-46
2021/03/07 03:29:27;;;;;;;3.03;1.80;;;23.10;26.20;;;;;;5050572;28;20369;-49
2021/03/07 03:31:53;;;;;;;2.60;1.97;;;23.10;26.20;;;;;;5049841;28;20213;-48
2021/03/07 03:34:18;;;;;;;1.97;1.87;;;23.10;26.20;;;;;;5050087;28;20232;-47
2021/03/07 03:36:44;;;;;;;1.90;1.70;;;23.10;26.20;;;;;;5049067;28;20236;-47
2021/03/07 03:39:10;;;;;;;2.73;1.97;;;23.10;26.10;;;;;;5050791;28;20236;-48
2021/03/07 03:41:36;;;;;;;2.57;1.90;;;23.10;26.00;;;;;;5049898;28;20671;-46
2021/03/07 03:44:02;;;;;;;2.77;1.70;;;23.10;26.00;;;;;;5048999;28;20221;-47
2021/03/07 03:46:28;;;;;;;2.73;1.90;;;23.10;26.00;;;;;;5049885;28;20209;-46
2021/03/07 03:48:54;;;;;;;2.70;2.10;;;23.10;26.00;;;;;;5050660;28;20236;-46
2021/03/07 03:51:20;;;;;;;2.10;1.87;;;23.10;26.00;;;;;;5049987;28;20206;-47
2021/03/07 03:53:46;;;;;;;4.17;2.23;;;23.10;26.10;;;;;;5050839;28;20226;-46
2021/03/07 03:56:12;;;;;;;2.33;1.80;;;23.10;26.10;;;;;;5049796;28;20685;-47
2021/03/07 03:58:38;;;;;;;2.00;1.80;;;23.10;26.00;;;;;;5051181;28;20667;-47
2021/03/07 04:01:04;;;;;;;3.03;1.90;;;23.10;26.00;;;;;;5049858;28;20197;-45
2021/03/07 04:03:30;;;;;;;2.07;1.80;;;23.10;26.00;;;;;;5050354;28;20241;-45
2021/03/07 04:05:56;;;;;;;2.23;1.83;;;23.10;26.00;;;;;;5049044;28;20215;-49
2021/03/07 04:08:21;;;;;;;2.07;1.87;;;23.10;26.10;;;;;;5049214;28;20244;-46
2021/03/07 04:10:47;;;;;;;2.17;1.90;;;23.10;26.10;;;;;;5049302;28;20205;-47
2021/03/07 04:13:13;;;;;;;2.43;1.70;;;23.10;26.10;;;;;;5050115;28;20228;-49
2021/03/07 04:15:39;;;;;;;2.20;2.00;;;23.10;26.30;;;;;;5048898;28;20563;-50
2021/03/07 04:18:05;;;;;;;2.67;1.73;;;23.10;26.30;;;;;;5051094;28;20669;-46
2021/03/07 04:20:31;;;;;;;1.80;1.67;;;23.10;26.40;;;;;;5049688;28;20971;-47
2021/03/07 04:22:57;;;;;;;1.90;1.70;;;23.10;26.40;;;;;;5049860;28;20762;-46
2021/03/07 04:25:23;;;;;;;2.20;2.00;;;23.10;26.40;;;;;;5049255;28;20198;-48
2021/03/07 04:27:49;;;;;;;1.67;1.57;;;23.10;26.40;;;;;;5054426;28;20205;-49
2021/03/07 04:30:15;;;;;;;2.30;2.10;;;23.10;26.40;;;;;;5053278;28;20209;-47
2021/03/07 04:32:41;;;;;;;3.10;2.00;;;23.10;26.30;;;;;;5052397;28;20221;-48
2021/03/07 04:35:06;;;;;;;2.57;1.83;;;23.10;26.30;;;;;;5053474;28;20210;-46
2021/03/07 04:37:32;;;;;;;3.10;1.90;;;23.10;26.30;;;;;;5054658;28;20543;-50
2021/03/07 04:39:58;;;;;;;2.50;2.00;;;23.10;26.30;;;;;;5054899;28;20665;-46
2021/03/07 04:42:24;;;;;;;2.37;2.10;;;23.10;26.20;;;;;;5050698;28;20228;-45
2021/03/07 04:44:50;;;;;;;2.43;1.97;;;23.10;26.20;;;;;;5051991;28;20239;-47
2021/03/07 04:47:16;;;;;;;2.80;1.70;;;23.10;26.20;;;;;;5054020;28;20217;-47
2021/03/07 04:49:42;;;;;;;1.97;1.80;;;23.10;26.20;;;;;;5053352;28;20229;-52
2021/03/07 04:52:08;;;;;;;2.33;2.07;;;23.10;26.10;;;;;;5054391;28;20209;-48
2021/03/07 04:54:34;;;;;;;1.90;1.70;;;23.10;26.70;;;;;;5053183;28;20542;-50
2021/03/07 04:57:00;;;;;;;2.17;1.90;;;23.00;26.10;;;;;;5046593;28;20208;-46
2021/03/07 04:59:26;;;;;;;3.50;2.10;;;23.10;26.10;;;;;;5053008;28;20206;-47
2021/03/07 05:01:52;;;;;;;2.37;1.80;;;23.00;26.10;;;;;;5053273;28;20204;-48
2021/03/07 05:04:18;;;;;;;1.90;1.80;;;23.00;26.10;;;;;;5053242;28;20201;-50
2021/03/07 05:06:44;;;;;;;2.00;1.80;;;23.10;26.20;;;;;;5052640;28;20207;-50
2021/03/07 05:09:09;;;;;;;2.60;1.93;;;23.10;26.30;;;;;;5054214;28;20263;-48
2021/03/07 05:11:35;;;;;;;2.10;1.80;;;23.10;26.30;;;;;;5052400;28;20216;-50
2021/03/07 05:14:01;;;;;;;2.27;1.80;;;23.10;26.40;;;;;;5053367;28;20587;-52
2021/03/07 05:16:27;;;;;;;1.77;1.67;;;23.10;26.40;;;;;;5051145;28;20560;-49
2021/03/07 05:18:53;;;;;;;2.30;1.90;;;23.10;26.40;;;;;;5050515;28;20657;-46
2021/03/07 05:21:19;;;;;;;3.13;1.70;;;23.00;26.40;;;;;;5049776;28;20211;-46
2021/03/07 05:23:45;;;;;;;2.37;1.90;;;23.10;26.40;;;;;;5053552;28;20221;-48
2021/03/07 05:26:11;;;;;;;2.23;1.70;;;23.10;26.40;;;;;;5052198;28;20220;-47
2021/03/07 05:28:37;;;;;;;1.80;1.70;;;23.10;26.40;;;;;;5052384;28;20228;-50
2021/03/07 05:31:03;;;;;;;2.37;1.77;;;23.10;26.40;;;;;;5053101;28;20559;-50
2021/03/07 05:33:29;;;;;;;2.23;1.80;;;23.10;26.40;;;;;;5051182;28;20234;-46
2021/03/07 05:35:54;;;;;;;2.60;1.73;;;23.10;26.30;;;;;;5053329;28;20362;-49
2021/03/07 05:38:20;;;;;;;1.60;1.50;;;23.10;26.80;;;;;;5050644;28;20216;-48
2021/03/07 05:40:46;;;;;;;1.97;1.77;;;23.10;26.80;;;;;;5053196;28;20201;-51
2021/03/07 05:43:12;;;;;;;2.93;1.73;;;23.10;26.30;;;;;;5049776;28;20223;-50
2021/03/07 05:45:38;;;;;;;2.30;2.10;;;23.10;26.20;;;;;;5052869;28;20540;-50
2021/03/07 05:48:04;;;;;;;1.73;1.63;;;23.10;26.20;;;;;;5052447;28;20626;-47
2021/03/07 05:50:30;;;;;;;1.70;1.57;;;23.10;26.20;;;;;;5052999;28;20223;-45
2021/03/07 05:52:57;;;;;;;2.13;1.83;;;23.00;26.20;;;;;;5051666;28;20220;-49
2021/03/07 05:55:23;;;;;;;2.07;1.90;;;23.10;26.30;;;;;;5053190;28;20208;-48
2021/03/07 05:57:49;;;;;;;2.23;1.97;;;23.00;26.30;;;;;;5051245;28;20200;-50
2021/03/07 06:00:15;;;;;;;4.43;1.93;;;23.00;26.30;;;;;;5053036;28;20565;-47
2021/03/07 06:02:40;;;;;;;5.67;2.03;;;23.10;26.40;;;;;;5051824;28;20689;-46
2021/03/07 06:05:06;;;;;;;3.17;1.97;;;23.00;26.90;;;;;;5052780;28;20197;-47
2021/03/07 06:07:32;;;;;;;2.27;2.07;;;23.00;26.60;;;;;;5051586;28;20216;-50
2021/03/07 06:09:58;;;;;;;2.07;1.70;;;23.10;26.50;;;;;;5052386;28;20282;-46
2021/03/07 06:12:24;;;;;;;3.93;2.27;;;23.10;26.50;;;;;;5052574;28;20225;-46
2021/03/07 06:14:50;;;;;;;2.10;1.90;;;23.00;26.30;;;;;;5041201;28;20283;-49
2021/03/07 06:17:16;;;;;;;1.70;1.40;;;23.10;26.40;;;;;;5044808;28;20657;-48
2021/03/07 06:19:42;;;;;;;2.57;1.80;;;23.10;26.40;;;;;;5050951;28;20208;-49
2021/03/07 06:22:08;;;;;;;1.93;1.80;;;23.00;26.30;;;;;;5052369;28;20217;-49
2021/03/07 06:24:34;;;;;;;2.20;1.90;;;23.00;26.30;;;;;;5051179;28;20203;-46
2021/03/07 06:27:00;;;;;;;2.57;1.80;;;23.00;26.40;;;;;;5043449;28;20196;-49
2021/03/07 06:29:25;;;;;;;5.03;1.77;;;23.10;26.40;;;;;;5051510;28;20305;-49
2021/03/07 06:31:51;;;;;;;2.80;1.80;;;23.00;26.30;;;;;;5052011;28;20218;-46
2021/03/07 06:34:17;;;;;;;2.90;2.10;;;23.00;26.40;;;;;;5051368;28;20201;-46
2021/03/07 06:36:43;;;;;;;2.63;2.10;;;23.10;26.40;;;;;;5051929;28;20205;-47
2021/03/07 06:39:10;;;;;;;2.87;1.80;;;23.10;26.50;;;;;;5051484;28;20209;-45
2021/03/07 06:41:36;;;;;;;2.83;2.17;;;23.00;26.50;;;;;;5049429;28;20204;-46
2021/03/07 06:44:02;;;;;;;2.77;2.10;;;23.10;26.60;;;;;;5050193;28;20648;-46
2021/03/07 06:46:28;;;;;;;3.73;2.07;;;23.00;26.60;;;;;;5050624;28;20213;-46
2021/03/07 06:48:54;;;;;;;2.80;1.80;;;23.10;26.60;;;;;;5048180;28;20232;-48
2021/03/07 06:51:20;;;;;;;2.97;1.97;;;23.10;26.70;;;;;;5050669;28;20201;-46
2021/03/07 06:53:45;;;;;;;2.37;1.60;;;23.10;26.70;;;;;;5050935;28;20200;-46
2021/03/07 06:56:11;;;;;;;3.10;1.90;;;23.10;26.70;;;;;;5051674;28;20205;-45
2021/03/07 06:58:37;;;;;;;2.77;1.80;;;23.10;26.70;;;;;;5050606;28;20228;-48
2021/03/07 07:01:03;;;;;;;2.57;1.70;;;23.10;26.60;;;;;;5039141;28;20672;-46
2021/03/07 07:03:31;;;;;;;1.80;1.70;;;23.10;26.60;;;;;;5051648;28;20702;-47
2021/03/07 07:05:57;;;;;;;2.07;1.87;;;23.10;26.30;;;;;;5049321;28;20542;-47
2021/03/07 07:08:23;;;;;;;3.37;1.80;;;23.10;26.30;;;;;;5051987;28;20233;-46
2021/03/07 07:10:49;;;;;;;2.23;2.00;;;23.10;26.30;;;;;;5050619;28;20204;-46
2021/03/07 07:13:15;;;;;;;2.20;2.00;;;23.00;26.20;;;;;;5049879;28;20245;-48
2021/03/07 07:15:41;;;;;;;2.00;1.90;;;23.10;26.20;;;;;;5046132;28;20220;-44
2021/03/07 07:18:06;;;;;;;2.30;2.00;;;23.10;26.30;;;;;;5045630;28;20217;-45
2021/03/07 07:20:32;;;;;;;2.60;1.93;;;23.10;26.30;;;;;;5045531;28;20561;-46
2021/03/07 07:22:58;;;;;;;2.43;2.00;;;23.10;26.20;;;;;;5048884;28;20217;-51
2021/03/07 07:25:24;;;;;;;1.80;1.70;;;23.10;26.20;;;;;;5048576;28;20197;-46
2021/03/07 07:27:50;;;;;;;2.90;1.90;;;23.10;26.20;;;;;;5050918;28;20213;-46
2021/03/07 07:30:16;;;;;;;2.43;1.90;;;23.10;26.30;;;;;;5051982;28;20236;-46
2021/03/07 07:32:42;;;;;;;2.53;1.90;;;23.10;26.30;;;;;;5049927;28;20274;-49
2021/03/07 07:35:08;;;;;;;1.83;1.67;;;23.00;26.20;;;;;;5050462;28;20278;-46
2021/03/07 07:37:34;;;;;;;1.93;1.77;;;23.10;26.30;;;;;;5051362;28;20213;-50
2021/03/07 07:40:00;;;;;;;2.70;1.70;;;23.10;26.30;;;;;;5050064;28;20214;-46
2021/03/07 07:42:26;;;;;;;3.90;1.73;;;23.10;26.40;;;;;;5050434;28;20259;-47
2021/03/07 07:44:51;;;;;;;1.87;1.70;;;23.10;26.40;;;;;;5049557;28;20215;-47
2021/03/07 07:47:17;;;;;;;2.33;1.70;;;23.10;26.40;;;;;;5051531;28;20212;-49
2021/03/07 07:49:43;;;;;;;2.60;2.03;;;23.10;26.40;;;;;;5051325;28;20238;-47
2021/03/07 07:52:09;;;;;;;3.60;1.70;;;23.10;26.40;;;;;;5050287;28;20595;-49
2021/03/07 07:54:35;;;;;;;1.80;1.70;;;23.10;26.50;;;;;;5051288;28;20211;-47
2021/03/07 07:57:01;;;;;;;3.47;2.37;;;23.10;26.40;;;;;;5050168;28;20217;-47
2021/03/07 07:59:27;;;;;;;5.00;2.50;;;23.10;26.50;;;;;;5050790;28;20213;-48
2021/03/07 08:01:53;;;;;;;12.10;3.13;;;23.10;26.90;;;;;;5048936;28;20221;-45
2021/03/07 08:04:19;;;;;;;3.70;2.20;;;23.10;27.30;;;;;;5048922;28;20204;-48
2021/03/07 08:06:45;;;;;;;4.50;2.63;;;23.00;27.30;;;;;;5048173;28;20681;-46
2021/03/07 08:09:11;;;;;;;4.50;1.80;;;23.00;27.30;;;;;;5044172;28;20225;-44
2021/03/07 08:11:37;;;;;;;3.37;2.10;;;23.00;27.30;;;;;;5053994;28;20241;-45
2021/03/07 08:14:03;;;;;;;4.90;1.93;;;23.00;27.30;;;;;;5052375;28;20209;-44
2021/03/07 08:16:29;;;;;;;5.43;2.20;;;23.00;27.30;;;;;;5052821;28;20196;-45
2021/03/07 08:18:55;;;;;;;4.33;2.00;;;23.00;27.40;;;;;;5059762;23;20230;-44
2021/03/07 08:21:21;;;;;;;4.43;2.40;;;23.00;27.60;;;;;;5051826;28;20221;-44
2021/03/07 08:23:47;;;;;;;7.20;2.20;;;23.10;27.20;;;;;;5045678;28;20210;-44
2021/03/07 08:26:13;;;;;;;3.37;2.30;;;23.20;27.20;;;;;;5051756;28;20219;-42
2021/03/07 08:28:42;;;;;;;4.53;2.10;;;23.20;27.00;;;;;;5054378;28;20236;-43
2021/03/07 08:31:07;;;;;;;7.53;2.03;;;23.20;27.20;;;;;;5055086;28;20707;-48
2021/03/07 08:33:33;;;;;;;4.00;2.00;;;23.10;27.30;;;;;;5049361;28;20248;-48
2021/03/07 08:35:59;;;;;;;8.20;2.10;;;23.20;27.80;;;;;;5053943;28;20209;-43
2021/03/07 08:38:25;;;;;;;6.90;2.87;;;23.10;27.80;;;;;;5053385;28;20205;-44
2021/03/07 08:40:51;;;;;;;7.10;2.50;;;23.10;28.10;;;;;;5054127;28;20225;-45
2021/03/07 08:43:17;;;;;;;7.83;2.57;;;23.20;29.30;;;;;;5052333;28;20582;-47
2021/03/07 08:45:43;;;;;;;8.20;2.73;;;23.10;32.10;;;;;;5042729;28;20202;-46
2021/03/07 08:48:09;;;;;;;8.33;2.70;;;23.00;32.80;;;;;;5051194;28;20197;-49
2021/03/07 08:50:35;;;;;;;8.93;3.07;;;23.00;32.90;;;;;;5049507;28;20224;-48
2021/03/07 08:53:01;;;;;;;9.63;3.17;;;23.00;32.80;;;;;;5052407;28;20208;-46
2021/03/07 08:55:26;;;;;;;8.07;3.10;;;23.00;33.00;;;;;;5052490;28;20216;-46
2021/03/07 08:57:52;;;;;;;6.67;2.67;;;23.00;32.30;;;;;;5043739;28;20197;-51
2021/03/07 09:00:18;;;;;;;10.40;6.13;;;23.00;31.00;;;;;;5051212;28;20563;-48
2021/03/07 09:02:44;;;;;;;9.70;7.50;;;21.30;27.40;;;;;;5052271;28;20216;-49
2021/03/07 09:05:10;;;;;;;9.37;6.97;;;21.00;25.20;;;;;;5047755;28;20573;-46
2021/03/07 09:07:36;;;;;;;7.00;5.87;;;21.00;23.30;;;;;;5050382;28;20278;-49
2021/03/07 09:10:02;;;;;;;7.17;5.33;;;21.50;26.30;;;;;;5053324;28;20696;-45
2021/03/07 09:12:28;;;;;;;7.60;4.80;;;21.90;27.30;;;;;;5053280;28;20230;-46
2021/03/07 09:14:54;;;;;;;5.17;4.67;;;22.10;27.40;;;;;;5053318;28;20218;-45
2021/03/07 09:17:20;;;;;;;5.63;4.63;;;22.20;27.50;;;;;;5051389;28;20199;-46
2021/03/07 09:19:46;;;;;;;5.80;4.87;;;22.30;27.60;;;;;;5050366;28;20211;-49
2021/03/07 09:22:11;;;;;;;5.60;3.80;;;22.40;27.90;;;;;;5050293;28;20247;-48
2021/03/07 09:24:37;;;;;;;4.40;3.63;;;22.40;28.60;;;;;;5050885;28;20563;-46
2021/03/07 09:27:03;;;;;;;4.80;3.87;;;22.50;27.30;;;;;;5066658;28;20713;-46
2021/03/07 09:29:29;;;;;;;4.77;4.27;;;22.60;27.70;;;;;;5067785;28;20275;-50
2021/03/07 09:31:55;;;;;;;5.00;3.67;;;22.60;27.70;;;;;;5071075;28;20222;-50
2021/03/07 09:34:21;;;;;;;4.47;3.80;;;22.60;27.70;;;;;;5071520;28;20210;-50
2021/03/07 09:36:47;;;;;;;4.90;4.40;;;22.60;27.90;;;;;;5073120;28;20211;-52
2021/03/07 09:39:13;;;;;;;4.80;3.70;;;22.60;28.10;;;;;;5069677;28;20264;-54
2021/03/07 09:41:39;;;;;;;3.90;3.60;;;22.70;28.30;;;;;;5071158;28;20230;-49
2021/03/07 09:44:05;;;;;;;4.40;3.70;;;22.60;27.80;;;;;;5071889;28;20204;-45
2021/03/07 09:46:31;;;;;;;5.07;3.87;;;22.70;27.20;;;;;;5069062;28;20211;-47
2021/03/07 09:48:57;;;;;;;4.60;4.00;;;22.70;27.80;;;;;;5071778;28;20249;-46
2021/03/07 09:51:23;;;;;;;5.17;3.90;;;22.60;27.80;;;;;;5071093;28;20654;-46
2021/03/07 09:53:48;;;;;;;4.20;3.80;;;22.60;27.70;;;;;;5072213;28;20208;-49
2021/03/07 09:56:14;;;;;;;5.27;4.07;;;22.60;27.70;;;;;;5060524;28;20213;-48
2021/03/07 09:58:40;;;;;;;4.07;3.67;;;22.70;27.50;;;;;;5067823;28;20214;-47
2021/03/07 10:01:06;;;;;;;6.10;3.90;;;22.70;27.80;;;;;;5070420;28;20224;-50
2021/03/07 10:03:32;;;;;;;4.37;3.57;;;22.70;27.20;;;;;;5068452;28;20232;-50
2021/03/07 10:05:58;;;;;;;4.90;3.43;;;22.70;27.00;;;;;;5069981;28;20673;-50
2021/03/07 10:08:24;;;;;;;7.20;2.77;;;22.80;26.90;;;;;;5057453;28;20684;-48
2021/03/07 10:10:50;;;;;;;3.10;2.50;;;22.90;28.00;;;;;;5053371;28;20698;-51
2021/03/07 10:13:16;;;;;;;3.37;2.47;;;22.90;27.90;;;;;;5052785;28;20208;-49
2021/03/07 10:15:42;;;;;;;3.10;2.37;;;23.00;27.60;;;;;;5067652;28;20204;-52
2021/03/07 10:18:08;;;;;;;3.70;2.77;;;23.00;27.40;;;;;;5053107;28;20665;-50
2021/03/07 10:20:33;;;;;;;3.20;2.00;;;23.10;27.40;;;;;;5053069;28;20237;-51
2021/03/07 10:22:59;;;;;;;4.20;2.40;;;23.10;28.00;;;;;;5068297;28;20224;-51
2021/03/07 10:25:25;;;;;;;3.73;2.17;;;23.10;27.30;;;;;;5072271;28;20203;-51
2021/03/07 10:27:51;;;;;;;4.20;2.30;;;23.10;27.30;;;;;;5064328;28;20200;-49
2021/03/07 10:30:17;;;;;;;3.67;2.37;;;23.10;27.40;;;;;;5072168;28;20262;-48
2021/03/07 10:32:43;;;;;;;5.17;2.40;;;23.20;27.40;;;;;;5072294;28;20547;-48
2021/03/07 10:35:09;;;;;;;3.50;1.97;;;23.20;27.40;;;;;;5072388;28;20208;-47
2021/03/07 10:37:35;;;;;;;3.50;2.30;;;23.10;27.40;;;;;;5072732;28;20254;-46
2021/03/07 10:40:01;;;;;;;3.37;2.30;;;23.10;27.50;;;;;;5072516;28;20255;-50
2021/03/07 10:42:27;;;;;;;2.90;2.10;;;23.20;27.50;;;;;;5072439;28;20218;-47
2021/03/07 10:44:52;;;;;;;2.40;2.20;;;23.20;27.50;;;;;;5072234;28;20200;-52
2021/03/07 10:47:18;;;;;;;2.90;2.23;;;23.20;27.60;;;;;;5072434;28;20256;-51
2021/03/07 10:49:44;;;;;;;2.80;2.60;;;23.20;27.50;;;;;;5071354;28;20735;-50
2021/03/07 10:52:10;;;;;;;2.17;1.97;;;23.20;27.70;;;;;;5071033;28;20224;-47
2021/03/07 10:54:36;;;;;;;2.57;2.30;;;23.20;27.80;;;;;;5072202;28;20212;-50
2021/03/07 10:57:02;;;;;;;3.80;2.30;;;23.20;27.90;;;;;;5072285;28;20218;-47
2021/03/07 10:59:28;;;;;;;2.93;2.37;;;23.20;28.00;;;;;;5072198;28;20215;-47
2021/03/07 11:01:54;;;;;;;2.53;2.00;;;23.20;27.80;;;;;;5071701;28;20232;-50
2021/03/07 11:04:20;;;;;;;3.10;2.10;;;23.20;27.80;;;;;;5072243;28;20208;-50
2021/03/07 11:06:46;;;;;;;2.40;2.10;;;23.20;27.90;;;;;;5071985;28;20201;-51
2021/03/07 11:09:12;;;;;;;2.37;2.10;;;23.20;28.20;;;;;;5071995;28;20231;-49
2021/03/07 11:11:39;;;;;;;2.47;2.20;;;23.20;28.00;;;;;;5071778;28;20228;-51
2021/03/07 11:14:05;;;;;;;2.45;1.90;;;23.20;28.10;;;;;;5072127;28;20218;-49
2021/03/07 11:16:31;;;;;;;2.53;2.03;;;23.20;28.00;;;;;;5071451;28;20201;-53
2021/03/07 11:18:57;;;;;;;1.80;1.70;;;23.20;28.00;;;;;;5072040;28;20217;-48
2021/03/07 11:21:23;;;;;;;2.80;2.00;;;23.20;27.90;;;;;;5072186;28;20228;-47
2021/03/07 11:23:49;;;;;;;2.70;2.17;;;23.30;27.80;;;;;;5071616;28;20262;-53
2021/03/07 11:26:15;;;;;;;2.70;2.17;;;23.30;27.80;;;;;;5069939;28;20212;-53
2021/03/07 11:28:41;;;;;;;2.20;2.07;;;23.20;27.70;;;;;;5052829;28;20229;-47
2021/03/07 11:31:07;;;;;;;2.37;2.17;;;23.20;27.70;;;;;;5067926;28;20566;-49
2021/03/07 11:33:32;;;;;;;4.77;2.03;;;23.20;27.80;;;;;;5071461;28;20208;-51
2021/03/07 11:35:58;;;;;;;3.33;2.07;;;23.20;27.90;;;;;;5071622;28;20210;-48
2021/03/07 11:38:24;;;;;;;3.00;2.10;;;23.20;28.00;;;;;;5071933;28;20208;-47
2021/03/07 11:40:50;;;;;;;2.15;1.95;;;23.20;28.70;;;;;;5071553;28;20244;-50
2021/03/07 11:43:16;;;;;;;2.23;1.90;;;23.20;28.70;;;;;;5071222;28;20223;-51
2021/03/07 11:45:42;;;;;;;2.40;2.20;;;23.20;28.20;;;;;;5071381;28;20574;-48
2021/03/07 11:48:08;;;;;;;2.77;1.83;;;23.20;28.20;;;;;;5070307;28;20734;-49
2021/03/07 11:50:34;;;;;;;4.83;2.00;;;23.20;28.20;;;;;;5067897;28;20232;-50
2021/03/07 11:53:00;;;;;;;10.43;2.85;;;23.20;28.20;;;;;;5063838;28;20208;-47
2021/03/07 11:55:26;;;;;;;3.60;2.30;;;23.20;27.90;;;;;;5063361;28;20214;-46
2021/03/07 11:57:52;;;;;;;5.57;2.53;;;23.30;27.80;;;;;;5069910;28;20201;-46
2021/03/07 12:00:17;;;;;;;5.53;2.17;;;23.30;28.20;;;;;;5070997;28;20319;-45
2021/03/07 12:02:43;;;;;;;3.60;2.33;;;23.30;27.80;;;;;;5069796;28;20207;-45
2021/03/07 12:05:09;;;;;;;4.13;2.00;;;23.30;27.70;;;;;;5069078;28;20205;-48
2021/03/07 12:07:35;;;;;;;4.03;2.27;;;23.30;27.50;;;;;;5067928;28;20208;-50
2021/03/07 12:10:01;;;;;;;3.10;2.20;;;23.40;27.50;;;;;;5069820;28;20231;-48
2021/03/07 12:12:27;;;;;;;3.53;2.00;;;23.30;27.30;;;;;;5069943;28;20231;-47
2021/03/07 12:14:53;;;;;;;4.10;1.70;;;23.40;27.40;;;;;;5069906;28;20263;-49
2021/03/07 12:17:19;;;;;;;2.73;1.80;;;23.40;27.30;;;;;;5067223;28;20543;-47
2021/03/07 12:19:45;;;;;;;1.93;1.80;;;23.40;27.40;;;;;;5068964;28;20266;-48
2021/03/07 12:22:11;;;;;;;5.93;2.33;;;23.40;27.70;;;;;;5065529;28;20208;-47
2021/03/07 12:24:37;;;;;;;4.78;1.92;;;23.40;27.80;;;;;;5062819;28;20212;-48
2021/03/07 12:27:05;;;;;;;2.87;2.17;;;23.40;27.80;;;;;;5070113;28;20202;-50
2021/03/07 12:29:31;;;;;;;4.60;1.90;;;23.40;27.90;;;;;;5066957;28;20224;-49
2021/03/07 12:31:56;;;;;;;3.57;2.47;;;23.40;27.80;;;;;;5062510;28;20204;-48
2021/03/07 12:34:22;;;;;;;3.03;1.90;;;23.30;28.00;;;;;;5070651;28;20197;-51
2021/03/07 12:36:48;;;;;;;3.87;2.40;;;23.30;27.90;;;;;;5071123;28;20668;-52